Terminal Aerodrome Forecast
Issued by NWS Shreveport, LA

Home | Current Version | Previous Version | Text Only | Print | Product List | Glossary On
Versions: 1 2 3 4 5 6 7 8 9 10 11 12 13 14 15 16
000
FTUS44 KSHV 012300 RRA
TAFTYR
TAF
KTYR 012345Z 0200/0224 17010KT P6SM SKC
     FM020100 17010KT P6SM FEW060
     FM020800 17010KT P6SM BKN009
     FM021400 19010KT P6SM BKN020
     FM021600 19009KT P6SM SCT035=

USA.gov is the U.S. government's official web portal to all federal, state and local government web resources and services.